Time;durP1;ratioP1;P1;durP2;ratioP2;P2;SDS_P1;SDS_P2;PMS_P1;PMS_P2;Temp;Humidity;BMP_temperature;BMP_pressure;BME280_temperature;BME280_humidity;BME280_pressure;Samples;Min_cycle;Max_cycle;Signal;HPM_P1;HPM_P2
2022/05/30 00:01:29;;;;;;;;;;;;;;;;;;5085364;28;1120;-74
2022/05/30 00:03:55;;;;;;;;;;;;;;;;;;5064000;28;1370;-74
2022/05/30 00:06:21;;;;;;;;;;;;;;;;;;5082654;28;1963;-73
2022/05/30 00:08:47;;;;;;;;;;;;;;;;;;5082399;28;1203;-73
2022/05/30 00:11:13;;;;;;;;;;;;;;;;;;5082207;28;1033;-74
2022/05/30 00:13:39;;;;;;;;;;;;;;;;;;5084336;28;1306;-74
2022/05/30 00:16:05;;;;;;;;;;;;;;;;;;5080438;28;1301;-74
2022/05/30 00:18:30;;;;;;;;;;;;;;;;;;5085507;28;1139;-74
2022/05/30 00:20:56;;;;;;;;;;;;;;;;;;5082124;28;1207;-74
2022/05/30 00:23:21;;;;;;;;;;;;;;;;;;5059987;28;1196;-74
2022/05/30 00:25:46;;;;;;;;;;;;;;;;;;5082174;28;1902;-74
2022/05/30 00:28:12;;;;;;;;;;;;;;;;;;5061349;28;1298;-74
2022/05/30 00:30:38;;;;;;;;;;;;;;;;;;5081873;28;1168;-74
2022/05/30 00:33:03;;;;;;;;;;;;;;;;;;5082269;28;1144;-74
2022/05/30 00:35:28;;;;;;;;;;;;;;;;;;5098961;28;1174;-73
2022/05/30 00:37:56;;;;;;;;;;;;;;;;;;5064541;28;1329;-74
2022/05/30 00:40:21;;;;;;;;;;;;;;;;;;5061219;28;1184;-74
2022/05/30 00:42:46;;;;;;;;;;;;;;;;;;5084651;28;1143;-74
2022/05/30 00:45:12;;;;;;;;;;;;;;;;;;5087827;28;1902;-74
2022/05/30 00:47:38;;;;;;;;;;;;;;;;;;5088089;28;1132;-73
2022/05/30 00:50:04;;;;;;;;;;;;;;;;;;5083543;28;1466;-73
2022/05/30 00:52:35;;;;;;;;;;;;;;;;;;5066657;28;1192;-73
2022/05/30 00:55:06;;;;;;;;;;;;;;;;;;5097643;28;1226;-74
2022/05/30 00:57:32;;;;;;;;;;;;;;;;;;5092542;27;1160;-74
2022/05/30 01:00:00;;;;;;;;;;;;;;;;;;5102593;27;1285;-74
2022/05/30 01:02:27;;;;;;;;;;;;;;;;;;5108380;27;1285;-73
2022/05/30 01:07:38;;;;;;;;;;;;;;;;;;5112032;27;1056;-75
2022/05/30 01:10:04;;;;;;;;;;;;;;;;;;5101519;27;1249;-74
2022/05/30 01:12:40;;;;;;;;;;;;;;;;;;5107406;27;1246;-74
2022/05/30 01:15:07;;;;;;;;;;;;;;;;;;5122443;27;1167;-74
2022/05/30 01:17:32;;;;;;;;;;;;;;;;;;5107548;27;1265;-74
2022/05/30 01:20:00;;;;;;;;;;;;;;;;;;5099179;28;1151;-75
2022/05/30 01:22:52;;;;;;;;;;;;;;;;;;5087443;28;1298;-75
2022/05/30 01:25:40;;;;;;;;;;;;;;;;;;5076606;28;1890;-75
2022/05/30 01:28:08;;;;;;;;;;;;;;;;;;5102491;28;1183;-75
2022/05/30 01:30:35;;;;;;;;;;;;;;;;;;5087456;28;1246;-74
2022/05/30 01:33:01;;;;;;;;;;;;;;;;;;5085756;28;1270;-75
2022/05/30 01:35:27;;;;;;;;;;;;;;;;;;5082771;28;1117;-74
2022/05/30 01:37:55;;;;;;;;;;;;;;;;;;5107486;28;1183;-75
2022/05/30 01:40:20;;;;;;;;;;;;;;;;;;5096282;28;1164;-74
2022/05/30 01:42:45;;;;;;;;;;;;;;;;;;5087960;28;1325;-74
2022/05/30 01:45:11;;;;;;;;;;;;;;;;;;5082908;28;1985;-75
2022/05/30 01:47:36;;;;;;;;;;;;;;;;;;5087825;28;1194;-74
2022/05/30 01:50:20;;;;;;;;;;;;;;;;;;5064383;28;1302;-75
2022/05/30 01:52:46;;;;;;;;;;;;;;;;;;5085274;28;1187;-74
2022/05/30 01:55:11;;;;;;;;;;;;;;;;;;5077160;28;1368;-74
2022/05/30 01:57:37;;;;;;;;;;;;;;;;;;5104773;28;1202;-75
2022/05/30 02:00:05;;;;;;;;;;;;;;;;;;5103825;28;1215;-76
2022/05/30 02:02:30;;;;;;;;;;;;;;;;;;5085179;28;1195;-75
2022/05/30 02:04:56;;;;;;;;;;;;;;;;;;5083014;28;1964;-75
2022/05/30 02:07:21;;;;;;;;;;;;;;;;;;5065744;28;1226;-74
2022/05/30 02:09:48;;;;;;;;;;;;;;;;;;5082922;28;1207;-75
2022/05/30 02:12:13;;;;;;;;;;;;;;;;;;5083927;27;1281;-74
2022/05/30 02:14:40;;;;;;;;;;;;;;;;;;5112027;27;1160;-75
2022/05/30 02:17:09;;;;;;;;;;;;;;;;;;5066347;28;1172;-75
2022/05/30 02:19:35;;;;;;;;;;;;;;;;;;5086749;28;1242;-74
2022/05/30 02:22:00;;;;;;;;;;;;;;;;;;5083566;28;1072;-74
2022/05/30 02:24:26;;;;;;;;;;;;;;;;;;5084159;28;1225;-75
2022/05/30 02:26:51;;;;;;;;;;;;;;;;;;5098839;28;1954;-74
2022/05/30 02:29:17;;;;;;;;;;;;;;;;;;5088993;27;1325;-74
2022/05/30 02:31:42;;;;;;;;;;;;;;;;;;5123687;27;1294;-74
2022/05/30 02:36:52;;;;;;;;;;;;;;;;;;5123435;27;992;-75
2022/05/30 02:39:18;;;;;;;;;;;;;;;;;;5104824;27;1175;-74
2022/05/30 02:41:47;;;;;;;;;;;;;;;;;;5121140;27;1230;-74
2022/05/30 02:44:13;;;;;;;;;;;;;;;;;;5089288;27;1460;-75
2022/05/30 02:46:38;;;;;;;;;;;;;;;;;;5105844;27;1886;-75
2022/05/30 02:49:04;;;;;;;;;;;;;;;;;;5125491;27;1175;-75
2022/05/30 02:51:29;;;;;;;;;;;;;;;;;;5101105;27;1111;-75
2022/05/30 02:53:55;;;;;;;;;;;;;;;;;;5124450;27;1218;-74
2022/05/30 02:56:20;;;;;;;;;;;;;;;;;;5115281;27;1203;-74
2022/05/30 02:58:46;;;;;;;;;;;;;;;;;;5107036;28;1198;-75
2022/05/30 03:01:11;;;;;;;;;;;;;;;;;;5102725;27;1301;-75
2022/05/30 03:03:37;;;;;;;;;;;;;;;;;;5125389;27;1179;-74
2022/05/30 03:06:03;;;;;;;;;;;;;;;;;;5102017;28;1890;-75
2022/05/30 03:08:28;;;;;;;;;;;;;;;;;;5104823;28;1108;-74
2022/05/30 03:10:53;;;;;;;;;;;;;;;;;;5114003;28;1206;-75
2022/05/30 03:13:19;;;;;;;;;;;;;;;;;;5104196;28;1238;-75
2022/05/30 03:15:44;;;;;;;;;;;;;;;;;;5104582;28;1139;-74
2022/05/30 03:18:10;;;;;;;;;;;;;;;;;;5124030;28;1171;-74
2022/05/30 03:20:35;;;;;;;;;;;;;;;;;;5100268;28;1275;-75
2022/05/30 03:23:01;;;;;;;;;;;;;;;;;;5092424;28;1101;-74
2022/05/30 03:25:26;;;;;;;;;;;;;;;;;;5094125;28;1905;-75
2022/05/30 03:27:53;;;;;;;;;;;;;;;;;;5087602;28;1387;-75
2022/05/30 03:30:19;;;;;;;;;;;;;;;;;;5096376;28;1308;-74
2022/05/30 03:32:44;;;;;;;;;;;;;;;;;;5088514;28;1251;-75
2022/05/30 03:35:28;;;;;;;;;;;;;;;;;;5101785;28;1269;-74
2022/05/30 03:37:53;;;;;;;;;;;;;;;;;;5123615;28;1084;-74
2022/05/30 03:40:19;;;;;;;;;;;;;;;;;;5096378;28;1231;-74
2022/05/30 03:42:44;;;;;;;;;;;;;;;;;;5123399;28;1203;-74
2022/05/30 03:45:17;;;;;;;;;;;;;;;;;;5099479;28;1985;-75
2022/05/30 03:47:44;;;;;;;;;;;;;;;;;;5107319;28;1194;-75
2022/05/30 03:50:12;;;;;;;;;;;;;;;;;;5098996;28;1226;-75
2022/05/30 03:52:37;;;;;;;;;;;;;;;;;;5103278;28;1258;-74
2022/05/30 03:55:05;;;;;;;;;;;;;;;;;;5101488;28;1273;-74
2022/05/30 03:57:30;;;;;;;;;;;;;;;;;;5103628;28;1149;-75
2022/05/30 03:59:56;;;;;;;;;;;;;;;;;;5079241;28;1187;-75
2022/05/30 04:02:21;;;;;;;;;;;;;;;;;;5064319;28;1334;-75
2022/05/30 04:04:46;;;;;;;;;;;;;;;;;;5084641;28;1940;-74
2022/05/30 04:07:12;;;;;;;;;;;;;;;;;;5081759;28;1294;-75
2022/05/30 04:09:38;;;;;;;;;;;;;;;;;;5065236;28;1152;-75
2022/05/30 04:12:03;;;;;;;;;;;;;;;;;;5079274;28;1076;-75
2022/05/30 04:14:31;;;;;;;;;;;;;;;;;;5082560;28;1151;-75
2022/05/30 04:16:56;;;;;;;;;;;;;;;;;;5080500;28;1341;-74
2022/05/30 04:19:21;;;;;;;;;;;;;;;;;;5082198;28;1145;-75
2022/05/30 04:21:46;;;;;;;;;;;;;;;;;;5083195;28;1223;-75
2022/05/30 04:24:12;;;;;;;;;;;;;;;;;;5088535;28;1186;-75
2022/05/30 04:26:37;;;;;;;;;;;;;;;;;;5093448;27;1953;-75
2022/05/30 04:29:03;;;;;;;;;;;;;;;;;;5080168;28;1204;-75
2022/05/30 04:31:28;;;;;;;;;;;;;;;;;;5102201;28;1140;-75
2022/05/30 04:33:54;;;;;;;;;;;;;;;;;;5093835;28;1238;-74
2022/05/30 04:36:19;;;;;;;;;;;;;;;;;;5062263;27;1106;-75
2022/05/30 04:38:45;;;;;;;;;;;;;;;;;;5068294;28;1224;-74
2022/05/30 04:41:10;;;;;;;;;;;;;;;;;;5083930;27;1259;-74
2022/05/30 04:43:35;;;;;;;;;;;;;;;;;;5105994;27;1203;-75
2022/05/30 04:46:12;;;;;;;;;;;;;;;;;;5105969;27;1983;-74
2022/05/30 04:48:37;;;;;;;;;;;;;;;;;;5105566;27;1337;-76
2022/05/30 04:51:06;;;;;;;;;;;;;;;;;;5086375;27;1206;-76
2022/05/30 04:53:32;;;;;;;;;;;;;;;;;;5105031;27;1250;-76
2022/05/30 04:55:57;;;;;;;;;;;;;;;;;;5105851;27;1318;-77
2022/05/30 04:58:23;;;;;;;;;;;;;;;;;;5104333;27;1375;-77
2022/05/30 05:00:48;;;;;;;;;;;;;;;;;;5107919;27;1367;-76
2022/05/30 05:03:13;;;;;;;;;;;;;;;;;;5105494;27;1304;-77
2022/05/30 05:05:39;;;;;;;;;;;;;;;;;;5104993;27;1948;-75
2022/05/30 05:08:17;;;;;;;;;;;;;;;;;;5080639;27;1466;-74
2022/05/30 05:11:01;;;;;;;;;;;;;;;;;;5083906;28;1344;-74
2022/05/30 05:13:26;;;;;;;;;;;;;;;;;;5073954;28;1142;-75
2022/05/30 05:15:55;;;;;;;;;;;;;;;;;;5087849;28;1145;-74
2022/05/30 05:18:22;;;;;;;;;;;;;;;;;;5104588;28;1204;-75
2022/05/30 05:20:47;;;;;;;;;;;;;;;;;;5085931;28;1144;-74
2022/05/30 05:23:12;;;;;;;;;;;;;;;;;;5084760;28;1159;-74
2022/05/30 05:25:38;;;;;;;;;;;;;;;;;;5083566;28;1952;-74
2022/05/30 05:28:04;;;;;;;;;;;;;;;;;;5084693;28;1258;-74
2022/05/30 05:30:30;;;;;;;;;;;;;;;;;;5084276;28;1281;-74
2022/05/30 05:32:55;;;;;;;;;;;;;;;;;;5086033;28;1073;-74
2022/05/30 05:35:25;;;;;;;;;;;;;;;;;;5085715;28;1210;-74
2022/05/30 05:37:51;;;;;;;;;;;;;;;;;;5064932;28;1204;-74
2022/05/30 05:40:17;;;;;;;;;;;;;;;;;;5064753;28;1211;-74
2022/05/30 05:42:42;;;;;;;;;;;;;;;;;;5100479;28;1184;-74
2022/05/30 05:45:07;;;;;;;;;;;;;;;;;;5068017;28;1913;-74
2022/05/30 05:47:33;;;;;;;;;;;;;;;;;;5083651;28;1171;-74
2022/05/30 05:49:59;;;;;;;;;;;;;;;;;;5084538;28;1255;-74
2022/05/30 05:52:28;;;;;;;;;;;;;;;;;;5101658;27;1188;-74
2022/05/30 05:54:58;;;;;;;;;;;;;;;;;;5089053;27;1168;-74
2022/05/30 05:57:27;;;;;;;;;;;;;;;;;;5105815;27;1164;-74
2022/05/30 05:59:52;;;;;;;;;;;;;;;;;;5086482;27;1382;-74
2022/05/30 06:02:18;;;;;;;;;;;;;;;;;;5106418;27;1316;-74
2022/05/30 06:04:44;;;;;;;;;;;;;;;;;;5103831;27;1255;-74
2022/05/30 06:07:09;;;;;;;;;;;;;;;;;;5104005;27;1946;-74
2022/05/30 06:09:35;;;;;;;;;;;;;;;;;;5088244;27;1147;-74
2022/05/30 06:12:00;;;;;;;;;;;;;;;;;;5102459;27;1242;-74
2022/05/30 06:14:26;;;;;;;;;;;;;;;;;;5105443;27;1274;-74
2022/05/30 06:16:52;;;;;;;;;;;;;;;;;;5102590;27;1468;-74
2022/05/30 06:19:17;;;;;;;;;;;;;;;;;;5089980;27;1240;-74
2022/05/30 06:21:42;;;;;;;;;;;;;;;;;;5118145;27;1160;-75
2022/05/30 06:24:09;;;;;;;;;;;;;;;;;;5090858;27;1223;-74
2022/05/30 06:26:34;;;;;;;;;;;;;;;;;;5100785;27;1950;-74
2022/05/30 06:29:00;;;;;;;;;;;;;;;;;;5105997;27;1105;-74
2022/05/30 06:31:30;;;;;;;;;;;;;;;;;;5103258;27;1388;-74
2022/05/30 06:33:58;;;;;;;;;;;;;;;;;;5106196;27;1136;-74
2022/05/30 06:36:24;;;;;;;;;;;;;;;;;;5102918;27;1328;-74
2022/05/30 06:38:50;;;;;;;;;;;;;;;;;;5105524;27;1247;-74
2022/05/30 06:41:16;;;;;;;;;;;;;;;;;;5102665;27;1310;-74
2022/05/30 06:43:42;;;;;;;;;;;;;;;;;;5121933;27;1160;-74
2022/05/30 06:46:08;;;;;;;;;;;;;;;;;;5105204;27;1925;-74
2022/05/30 06:48:34;;;;;;;;;;;;;;;;;;5105621;27;1188;-74
2022/05/30 06:51:06;;;;;;;;;;;;;;;;;;5103245;27;1444;-74
2022/05/30 06:53:35;;;;;;;;;;;;;;;;;;5104733;27;1163;-74
2022/05/30 06:56:00;;;;;;;;;;;;;;;;;;5121355;27;1183;-73
2022/05/30 06:58:25;;;;;;;;;;;;;;;;;;5106865;27;1216;-74
2022/05/30 07:00:52;;;;;;;;;;;;;;;;;;5102363;28;1358;-74
2022/05/30 07:03:17;;;;;;;;;;;;;;;;;;5096728;28;1202;-74
2022/05/30 07:05:43;;;;;;;;;;;;;;;;;;5099274;28;1903;-74
2022/05/30 07:08:09;;;;;;;;;;;;;;;;;;5101755;28;1231;-74
2022/05/30 07:10:37;;;;;;;;;;;;;;;;;;5079929;28;1168;-74
2022/05/30 07:13:03;;;;;;;;;;;;;;;;;;5068281;28;1381;-74
2022/05/30 07:15:31;;;;;;;;;;;;;;;;;;5064153;28;1219;-74
2022/05/30 07:17:57;;;;;;;;;;;;;;;;;;5083516;28;1405;-73
2022/05/30 07:20:22;;;;;;;;;;;;;;;;;;5103769;28;1211;-74
2022/05/30 07:22:47;;;;;;;;;;;;;;;;;;5077902;28;1318;-73
2022/05/30 07:25:13;;;;;;;;;;;;;;;;;;5122027;28;1914;-75
2022/05/30 07:27:39;;;;;;;;;;;;;;;;;;5123184;28;1187;-75
2022/05/30 07:30:05;;;;;;;;;;;;;;;;;;5103360;28;1176;-75
2022/05/30 07:32:31;;;;;;;;;;;;;;;;;;5122982;28;1330;-75
2022/05/30 07:34:56;;;;;;;;;;;;;;;;;;5120738;28;1076;-75
2022/05/30 07:37:22;;;;;;;;;;;;;;;;;;5101323;28;1164;-75
2022/05/30 07:39:47;;;;;;;;;;;;;;;;;;5081492;28;1317;-75
2022/05/30 07:42:13;;;;;;;;;;;;;;;;;;5084464;28;1204;-75
2022/05/30 07:44:39;;;;;;;;;;;;;;;;;;5081510;28;1286;-75
2022/05/30 07:47:04;;;;;;;;;;;;;;;;;;5064131;28;1939;-75
2022/05/30 07:49:30;;;;;;;;;;;;;;;;;;5104419;28;1374;-75
2022/05/30 07:51:55;;;;;;;;;;;;;;;;;;5096586;28;1227;-75
2022/05/30 07:54:22;;;;;;;;;;;;;;;;;;5067402;28;1197;-75
2022/05/30 07:56:47;;;;;;;;;;;;;;;;;;5100506;28;1235;-75
2022/05/30 07:59:13;;;;;;;;;;;;;;;;;;5086087;28;1157;-75
2022/05/30 08:01:39;;;;;;;;;;;;;;;;;;5066819;28;1267;-75
2022/05/30 08:04:05;;;;;;;;;;;;;;;;;;5088402;28;1251;-75
2022/05/30 08:06:30;;;;;;;;;;;;;;;;;;5084711;28;1922;-75
2022/05/30 08:08:56;;;;;;;;;;;;;;;;;;5069159;28;1291;-75
2022/05/30 08:11:22;;;;;;;;;;;;;;;;;;5082466;28;1286;-75
2022/05/30 08:13:48;;;;;;;;;;;;;;;;;;5084146;28;1202;-76
2022/05/30 08:16:19;;;;;;;;;;;;;;;;;;5087370;28;1254;-75
2022/05/30 08:18:44;;;;;;;;;;;;;;;;;;5087621;28;1159;-75
2022/05/30 08:21:09;;;;;;;;;;;;;;;;;;5104131;28;1160;-76
2022/05/30 08:23:35;;;;;;;;;;;;;;;;;;5088772;28;1171;-76
2022/05/30 08:26:00;;;;;;;;;;;;;;;;;;5083339;27;1932;-76
2022/05/30 08:28:26;;;;;;;;;;;;;;;;;;5086146;28;1240;-76
2022/05/30 08:30:51;;;;;;;;;;;;;;;;;;5083988;28;1314;-76
2022/05/30 08:33:18;;;;;;;;;;;;;;;;;;5105964;27;1254;-76
2022/05/30 08:35:45;;;;;;;;;;;;;;;;;;5124544;27;1224;-76
2022/05/30 08:38:11;;;;;;;;;;;;;;;;;;5089668;27;1301;-76
2022/05/30 08:43:25;;;;;;;;;;;;;;;;;;5127207;27;1036;-76
2022/05/30 08:45:53;;;;;;;;;;;;;;;;;;5123334;27;1945;-76
2022/05/30 08:48:26;;;;;;;;;;;;;;;;;;5108280;27;1222;-76
2022/05/30 08:51:09;;;;;;;;;;;;;;;;;;5106151;27;1384;-77
2022/05/30 08:53:49;;;;;;;;;;;;;;;;;;5109486;27;1081;-76
2022/05/30 08:56:19;;;;;;;;;;;;;;;;;;5106155;27;1219;-76
2022/05/30 08:58:51;;;;;;;;;;;;;;;;;;5103652;27;1350;-76
2022/05/30 09:01:23;;;;;;;;;;;;;;;;;;5108098;27;1196;-77
2022/05/30 09:04:16;;;;;;;;;;;;;;;;;;5125510;27;1175;-76
2022/05/30 09:06:58;;;;;;;;;;;;;;;;;;5122644;27;1915;-76
2022/05/30 09:09:37;;;;;;;;;;;;;;;;;;5107825;27;1299;-76
2022/05/30 09:12:03;;;;;;;;;;;;;;;;;;5101508;27;1257;-76
2022/05/30 09:14:32;;;;;;;;;;;;;;;;;;5123967;27;1143;-76
2022/05/30 09:16:59;;;;;;;;;;;;;;;;;;5105503;27;1151;-76
2022/05/30 09:19:24;;;;;;;;;;;;;;;;;;5106206;28;1159;-75
2022/05/30 09:21:50;;;;;;;;;;;;;;;;;;5082902;28;1192;-75
2022/05/30 09:24:16;;;;;;;;;;;;;;;;;;5105635;28;1361;-76
2022/05/30 09:26:41;;;;;;;;;;;;;;;;;;5083791;28;1931;-76
2022/05/30 09:29:18;;;;;;;;;;;;;;;;;;5096201;27;1389;-75
2022/05/30 09:31:43;;;;;;;;;;;;;;;;;;5123998;27;1298;-75
2022/05/30 09:34:47;;;;;;;;;;;;;;;;;;5123891;27;1140;-75
2022/05/30 09:37:25;;;;;;;;;;;;;;;;;;5030285;28;1489;-75
2022/05/30 09:39:54;;;;;;;;;;;;;;;;;;5020962;28;1176;-75
2022/05/30 09:42:27;;;;;;;;;;;;;;;;;;5044873;28;1283;-75
2022/05/30 09:44:55;;;;;;;;;;;;;;;;;;5100984;28;1314;-75
2022/05/30 09:47:22;;;;;;;;;;;;;;;;;;5104691;28;1914;-75
2022/05/30 09:49:52;;;;;;;;;;;;;;;;;;5087242;28;1164;-75
2022/05/30 09:52:33;;;;;;;;;;;;;;;;;;5084011;28;1165;-75
2022/05/30 09:55:19;;;;;;;;;;;;;;;;;;5081902;27;1168;-76
2022/05/30 09:57:44;;;;;;;;;;;;;;;;;;5105961;27;1214;-75
2022/05/30 10:00:13;;;;;;;;;;;;;;;;;;5094215;27;1230;-75
2022/05/30 10:02:41;;;;;;;;;;;;;;;;;;5106446;27;1178;-75
2022/05/30 10:05:21;;;;;;;;;;;;;;;;;;5103943;27;1948;-75
2022/05/30 10:07:52;;;;;;;;;;;;;;;;;;5090056;28;1243;-75
2022/05/30 10:10:23;;;;;;;;;;;;;;;;;;5084307;28;1320;-75
2022/05/30 10:12:53;;;;;;;;;;;;;;;;;;5082986;28;1187;-75
2022/05/30 10:15:29;;;;;;;;;;;;;;;;;;5085605;28;1298;-75
2022/05/30 10:17:56;;;;;;;;;;;;;;;;;;5102079;28;1064;-75
2022/05/30 10:20:36;;;;;;;;;;;;;;;;;;5085440;28;1185;-75
2022/05/30 10:28:54;;;;;;;;;;;;;;;;;;5124705;27;1148;-75
2022/05/30 10:31:20;;;;;;;;;;;;;;;;;;5100259;27;1258;-74
2022/05/30 10:33:56;;;;;;;;;;;;;;;;;;5107405;27;1147;-76
2022/05/30 10:36:31;;;;;;;;;;;;;;;;;;5101332;27;1333;-75
2022/05/30 10:38:56;;;;;;;;;;;;;;;;;;5105243;27;1194;-76
2022/05/30 10:41:31;;;;;;;;;;;;;;;;;;5105404;27;1200;-76
2022/05/30 10:44:09;;;;;;;;;;;;;;;;;;5103398;28;1289;-76
2022/05/30 10:46:39;;;;;;;;;;;;;;;;;;5084512;28;1913;-76
2022/05/30 10:49:18;;;;;;;;;;;;;;;;;;5084562;28;1259;-76
2022/05/30 10:51:49;;;;;;;;;;;;;;;;;;5081914;28;1252;-76
2022/05/30 10:54:29;;;;;;;;;;;;;;;;;;5082693;28;1309;-76
2022/05/30 10:57:06;;;;;;;;;;;;;;;;;;5100862;28;1176;-75
2022/05/30 10:59:34;;;;;;;;;;;;;;;;;;5081554;28;1381;-76
2022/05/30 11:02:15;;;;;;;;;;;;;;;;;;5082567;28;1203;-76
2022/05/30 11:04:59;;;;;;;;;;;;;;;;;;5104831;28;1153;-76
2022/05/30 11:07:42;;;;;;;;;;;;;;;;;;5102747;28;1986;-76
2022/05/30 11:10:11;;;;;;;;;;;;;;;;;;5082069;28;1231;-75
2022/05/30 11:12:40;;;;;;;;;;;;;;;;;;5102379;28;1180;-76
2022/05/30 11:15:12;;;;;;;;;;;;;;;;;;5081842;28;1256;-75
2022/05/30 11:17:56;;;;;;;;;;;;;;;;;;5104311;28;1207;-76
2022/05/30 11:20:23;;;;;;;;;;;;;;;;;;5084091;28;1250;-76
2022/05/30 11:22:50;;;;;;;;;;;;;;;;;;5115339;28;1132;-76
2022/05/30 11:25:20;;;;;;;;;;;;;;;;;;5102930;28;1889;-76
2022/05/30 11:28:04;;;;;;;;;;;;;;;;;;5106096;28;1316;-76
2022/05/30 11:30:32;;;;;;;;;;;;;;;;;;5125076;27;1128;-76
2022/05/30 11:33:02;;;;;;;;;;;;;;;;;;5108826;27;1177;-76
2022/05/30 11:35:27;;;;;;;;;;;;;;;;;;5109753;27;1175;-76
2022/05/30 11:37:59;;;;;;;;;;;;;;;;;;5110484;27;1229;-76
2022/05/30 11:40:32;;;;;;;;;;;;;;;;;;5107804;27;1116;-76
2022/05/30 11:43:03;;;;;;;;;;;;;;;;;;5128106;27;1163;-76
2022/05/30 11:45:29;;;;;;;;;;;;;;;;;;5124569;27;1954;-76
2022/05/30 11:48:07;;;;;;;;;;;;;;;;;;5109916;27;1387;-76
2022/05/30 11:50:54;;;;;;;;;;;;;;;;;;5108896;27;1265;-77
2022/05/30 11:53:22;;;;;;;;;;;;;;;;;;5106074;27;1237;-76
2022/05/30 11:56:07;;;;;;;;;;;;;;;;;;5090680;28;1257;-76
2022/05/30 11:58:35;;;;;;;;;;;;;;;;;;5101039;27;1172;-76
2022/05/30 12:01:02;;;;;;;;;;;;;;;;;;5104552;27;1210;-76
2022/05/30 12:03:46;;;;;;;;;;;;;;;;;;5110336;27;1286;-76
2022/05/30 12:06:28;;;;;;;;;;;;;;;;;;5106729;27;1980;-76
2022/05/30 12:09:09;;;;;;;;;;;;;;;;;;5129869;27;1187;-77
2022/05/30 12:11:43;;;;;;;;;;;;;;;;;;5123847;27;1187;-76
2022/05/30 12:14:18;;;;;;;;;;;;;;;;;;5108278;27;1289;-76
2022/05/30 12:17:02;;;;;;;;;;;;;;;;;;5104499;27;1313;-76
2022/05/30 12:25:04;;;;;;;;;;;;;;;;;;5071946;27;1329;-75
2022/05/30 12:27:37;;;;;;;;;;;;;;;;;;5110156;27;1184;-75
2022/05/30 12:30:12;;;;;;;;;;;;;;;;;;5124161;27;1176;-75
2022/05/30 12:32:38;;;;;;;;;;;;;;;;;;5107214;27;1186;-75
2022/05/30 12:37:46;;;;;;;;;;;;;;;;;;5118598;27;1187;-76
2022/05/30 12:40:26;;;;;;;;;;;;;;;;;;5082204;28;1195;-75
2022/05/30 12:43:06;;;;;;;;;;;;;;;;;;5087185;27;1429;-75
2022/05/30 12:45:32;;;;;;;;;;;;;;;;;;5082988;28;1984;-76
2022/05/30 12:47:57;;;;;;;;;;;;;;;;;;5086259;28;1120;-76
2022/05/30 12:50:32;;;;;;;;;;;;;;;;;;5080147;28;1156;-75
2022/05/30 12:53:00;;;;;;;;;;;;;;;;;;5082530;28;1227;-76
2022/05/30 12:55:33;;;;;;;;;;;;;;;;;;5079416;28;1179;-75
2022/05/30 12:57:58;;;;;;;;;;;;;;;;;;5083548;28;1316;-75
2022/05/30 13:00:43;;;;;;;;;;;;;;;;;;5083515;28;1207;-79
2022/05/30 13:03:23;;;;;;;;;;;;;;;;;;5103255;28;1416;-84
2022/05/30 13:06:18;;;;;;;;;;;;;;;;;;5088667;28;1972;-79
2022/05/30 13:08:57;;;;;;;;;;;;;;;;;;5093287;28;1535;-75
2022/05/30 13:11:35;;;;;;;;;;;;;;;;;;5098311;28;1170;-76
2022/05/30 13:14:15;;;;;;;;;;;;;;;;;;5106652;28;1202;-75
2022/05/30 13:16:42;;;;;;;;;;;;;;;;;;5100407;28;1333;-75
2022/05/30 13:19:13;;;;;;;;;;;;;;;;;;5105435;28;1124;-75
2022/05/30 13:21:48;;;;;;;;;;;;;;;;;;5101313;28;1426;-75
2022/05/30 13:24:25;;;;;;;;;;;;;;;;;;5104428;28;1226;-75
2022/05/30 13:26:51;;;;;;;;;;;;;;;;;;5098482;28;1910;-76
2022/05/30 13:29:16;;;;;;;;;;;;;;;;;;5105269;28;1124;-76
2022/05/30 13:31:41;;;;;;;;;;;;;;;;;;5100920;28;1184;-77
2022/05/30 13:34:08;;;;;;;;;;;;;;;;;;5088724;28;1282;-77
2022/05/30 13:36:33;;;;;;;;;;;;;;;;;;5080794;28;1228;-77
2022/05/30 13:39:02;;;;;;;;;;;;;;;;;;5107409;28;1313;-77
2022/05/30 13:41:29;;;;;;;;;;;;;;;;;;5097930;28;1234;-74
2022/05/30 13:43:56;;;;;;;;;;;;;;;;;;5106372;28;1327;-75
2022/05/30 13:46:32;;;;;;;;;;;;;;;;;;5100428;28;2001;-75
2022/05/30 13:48:57;;;;;;;;;;;;;;;;;;5098665;28;1237;-75
2022/05/30 13:51:43;;;;;;;;;;;;;;;;;;5078016;28;1223;-73
2022/05/30 13:54:12;;;;;;;;;;;;;;;;;;5085153;28;1180;-75
2022/05/30 13:56:39;;;;;;;;;;;;;;;;;;5080429;28;1161;-75
2022/05/30 13:59:15;;;;;;;;;;;;;;;;;;5087081;28;1140;-75
2022/05/30 14:01:41;;;;;;;;;;;;;;;;;;5080656;28;1249;-75
2022/05/30 14:04:27;;;;;;;;;;;;;;;;;;5084381;28;1308;-76
2022/05/30 14:06:52;;;;;;;;;;;;;;;;;;5078034;28;1977;-75
2022/05/30 14:09:19;;;;;;;;;;;;;;;;;;5081893;28;1419;-75
2022/05/30 14:11:47;;;;;;;;;;;;;;;;;;5077814;28;1223;-75
2022/05/30 14:14:31;;;;;;;;;;;;;;;;;;5082864;28;1484;-75
2022/05/30 14:16:57;;;;;;;;;;;;;;;;;;5079002;28;1136;-75
2022/05/30 14:19:24;;;;;;;;;;;;;;;;;;5084125;28;1105;-75
2022/05/30 14:21:54;;;;;;;;;;;;;;;;;;5075820;28;1191;-76
2022/05/30 14:24:25;;;;;;;;;;;;;;;;;;5081394;28;1417;-75
2022/05/30 14:26:52;;;;;;;;;;;;;;;;;;5078786;28;1952;-76
2022/05/30 14:29:31;;;;;;;;;;;;;;;;;;5082473;28;1235;-75
2022/05/30 14:32:00;;;;;;;;;;;;;;;;;;5077791;28;1192;-76
2022/05/30 14:34:32;;;;;;;;;;;;;;;;;;5080137;28;1203;-75
2022/05/30 14:36:58;;;;;;;;;;;;;;;;;;5078871;28;1139;-74
2022/05/30 14:39:25;;;;;;;;;;;;;;;;;;5081938;28;1372;-75
2022/05/30 14:42:00;;;;;;;;;;;;;;;;;;5079442;28;1207;-76
2022/05/30 14:44:34;;;;;;;;;;;;;;;;;;5081110;28;1373;-77
2022/05/30 14:47:00;;;;;;;;;;;;;;;;;;5079540;28;1921;-75
2022/05/30 14:49:28;;;;;;;;;;;;;;;;;;5082781;28;1226;-76
2022/05/30 14:51:53;;;;;;;;;;;;;;;;;;5074297;28;1167;-76
2022/05/30 14:54:29;;;;;;;;;;;;;;;;;;5093781;28;1488;-75
2022/05/30 14:56:55;;;;;;;;;;;;;;;;;;5100244;28;1123;-75
2022/05/30 14:59:30;;;;;;;;;;;;;;;;;;5101655;28;1211;-76
2022/05/30 15:01:55;;;;;;;;;;;;;;;;;;5098934;28;1252;-75
2022/05/30 15:04:20;;;;;;;;;;;;;;;;;;5102095;28;1249;-75
2022/05/30 15:06:55;;;;;;;;;;;;;;;;;;5098469;28;1956;-76
2022/05/30 15:09:21;;;;;;;;;;;;;;;;;;5101865;28;1289;-76
2022/05/30 15:11:47;;;;;;;;;;;;;;;;;;5097139;28;1195;-76
2022/05/30 15:14:14;;;;;;;;;;;;;;;;;;5085268;28;1336;-75
2022/05/30 15:16:39;;;;;;;;;;;;;;;;;;5096055;28;1087;-76
2022/05/30 15:19:05;;;;;;;;;;;;;;;;;;5102949;28;1223;-75
2022/05/30 15:21:34;;;;;;;;;;;;;;;;;;5096291;28;1305;-75
2022/05/30 15:24:00;;;;;;;;;;;;;;;;;;5102824;28;1270;-76
2022/05/30 15:26:26;;;;;;;;;;;;;;;;;;5083655;28;1897;-76
2022/05/30 15:28:52;;;;;;;;;;;;;;;;;;5081810;28;1310;-74
2022/05/30 15:31:25;;;;;;;;;;;;;;;;;;5077149;28;1196;-75
2022/05/30 15:33:50;;;;;;;;;;;;;;;;;;5081109;28;1191;-75
2022/05/30 15:36:22;;;;;;;;;;;;;;;;;;5095152;28;1156;-74
2022/05/30 15:38:47;;;;;;;;;;;;;;;;;;5102887;28;1386;-74
2022/05/30 15:41:13;;;;;;;;;;;;;;;;;;5079526;28;1258;-77
2022/05/30 15:43:38;;;;;;;;;;;;;;;;;;5097622;28;1237;-77
2022/05/30 15:46:04;;;;;;;;;;;;;;;;;;5082494;28;1917;-77
2022/05/30 15:48:30;;;;;;;;;;;;;;;;;;5099553;28;1388;-77
2022/05/30 15:50:55;;;;;;;;;;;;;;;;;;5101591;28;1309;-75
2022/05/30 15:58:57;;;;;;;;;;;;;;;;;;5077544;28;1043;-76
2022/05/30 16:01:23;;;;;;;;;;;;;;;;;;5078609;28;1320;-76
2022/05/30 16:03:48;;;;;;;;;;;;;;;;;;5087488;28;1193;-76
2022/05/30 16:06:13;;;;;;;;;;;;;;;;;;5051474;28;1909;-76
2022/05/30 16:08:40;;;;;;;;;;;;;;;;;;5069366;28;1187;-79
2022/05/30 16:11:08;;;;;;;;;;;;;;;;;;5083417;28;1139;-77
2022/05/30 16:13:33;;;;;;;;;;;;;;;;;;5083026;28;1263;-76
2022/05/30 16:16:03;;;;;;;;;;;;;;;;;;5073571;28;1124;-77
2022/05/30 16:18:28;;;;;;;;;;;;;;;;;;5057215;28;1226;-76
2022/05/30 16:20:54;;;;;;;;;;;;;;;;;;5069215;28;1303;-77
2022/05/30 16:23:25;;;;;;;;;;;;;;;;;;5080884;28;1088;-77
2022/05/30 16:25:58;;;;;;;;;;;;;;;;;;5073335;28;1902;-77
2022/05/30 16:28:29;;;;;;;;;;;;;;;;;;5085807;28;1228;-77
2022/05/30 16:30:55;;;;;;;;;;;;;;;;;;5052862;28;1313;-76
2022/05/30 16:33:22;;;;;;;;;;;;;;;;;;5091957;28;1316;-76
2022/05/30 16:35:51;;;;;;;;;;;;;;;;;;5086646;28;1216;-77
2022/05/30 16:38:18;;;;;;;;;;;;;;;;;;5059149;28;1237;-76
2022/05/30 16:40:44;;;;;;;;;;;;;;;;;;5081154;28;1234;-77
2022/05/30 16:43:09;;;;;;;;;;;;;;;;;;5066844;28;1306;-77
2022/05/30 16:45:38;;;;;;;;;;;;;;;;;;5106445;27;1984;-77
2022/05/30 16:48:03;;;;;;;;;;;;;;;;;;5105238;27;1200;-77
2022/05/30 16:50:29;;;;;;;;;;;;;;;;;;5097343;27;1164;-77
2022/05/30 16:52:54;;;;;;;;;;;;;;;;;;5079387;28;1136;-76
2022/05/30 16:55:19;;;;;;;;;;;;;;;;;;5076385;27;1144;-78
2022/05/30 16:57:45;;;;;;;;;;;;;;;;;;5082474;28;1314;-77
2022/05/30 17:00:12;;;;;;;;;;;;;;;;;;5086673;27;1360;-77
2022/05/30 17:02:37;;;;;;;;;;;;;;;;;;5094075;28;1267;-78
2022/05/30 17:05:03;;;;;;;;;;;;;;;;;;5082970;28;1200;-76
2022/05/30 17:07:31;;;;;;;;;;;;;;;;;;5095107;27;1929;-76
2022/05/30 17:09:58;;;;;;;;;;;;;;;;;;5087355;27;1278;-76
2022/05/30 17:12:24;;;;;;;;;;;;;;;;;;5106929;27;1275;-77
2022/05/30 17:14:50;;;;;;;;;;;;;;;;;;5105016;27;1084;-76
2022/05/30 17:17:18;;;;;;;;;;;;;;;;;;5089532;27;1408;-76
2022/05/30 17:19:50;;;;;;;;;;;;;;;;;;5099150;28;1304;-76
2022/05/30 17:22:16;;;;;;;;;;;;;;;;;;5086212;28;1235;-76
2022/05/30 17:24:42;;;;;;;;;;;;;;;;;;5117118;27;1215;-76
2022/05/30 17:29:52;;;;;;;;;;;;;;;;;;5098499;28;1008;-76
2022/05/30 17:32:27;;;;;;;;;;;;;;;;;;5087447;27;1228;-76
2022/05/30 17:34:53;;;;;;;;;;;;;;;;;;5090780;28;1210;-77
2022/05/30 17:37:19;;;;;;;;;;;;;;;;;;5100678;27;1317;-77
2022/05/30 17:39:44;;;;;;;;;;;;;;;;;;5087286;27;1219;-77
2022/05/30 17:42:09;;;;;;;;;;;;;;;;;;5104111;27;1282;-76
2022/05/30 17:44:35;;;;;;;;;;;;;;;;;;5105700;27;1293;-77